Time;durP1;ratioP1;P1;durP2;ratioP2;P2;SDS_P1;SDS_P2;PMS_P1;PMS_P2;Temp;Humidity;BMP_temperature;BMP_pressure;BME280_temperature;BME280_humidity;BME280_pressure;Samples;Min_cycle;Max_cycle;Signal;HPM_P1;HPM_P2
2021/12/30 00:00:45;;;;;;;0.30;0.30;;;;;;;0.65;94.33;99302.44;5065000;28;20036;-75
2021/12/30 00:03:11;;;;;;;0.35;0.35;;;;;;;0.73;94.07;99306.84;5063313;28;20025;-77
2021/12/30 00:05:38;;;;;;;0.43;0.43;;;;;;;0.69;94.35;99287.19;5064521;28;20024;-77
2021/12/30 00:08:04;;;;;;;0.40;0.40;;;;;;;0.74;94.73;99297.47;5064653;28;20052;-77
2021/12/30 00:10:30;;;;;;;0.30;0.30;;;;;;;0.74;94.18;99295.78;5064592;28;20032;-76
2021/12/30 00:12:57;;;;;;;1.38;1.38;;;;;;;0.68;94.94;99303.34;5063122;28;20291;-76
2021/12/30 00:15:23;;;;;;;1.60;1.60;;;;;;;0.72;94.76;99299.13;5064713;28;20025;-77
2021/12/30 00:17:48;;;;;;;0.30;0.30;;;;;;;0.70;94.83;99291.44;5063386;28;20070;-76
2021/12/30 00:20:14;;;;;;;0.45;0.45;;;;;;;0.78;94.71;99295.81;5064506;28;20029;-76
2021/12/30 00:22:41;;;;;;;0.30;0.30;;;;;;;0.72;94.53;99286.34;5064372;28;20045;-77
2021/12/30 00:25:08;;;;;;;0.40;0.40;;;;;;;0.78;94.40;99288.16;5064360;28;20378;-75
2021/12/30 00:27:33;;;;;;;0.32;0.32;;;;;;;0.85;94.39;99303.56;5064271;28;20016;-77
2021/12/30 00:29:59;;;;;;;0.40;0.40;;;;;;;0.78;94.65;99293.25;5062817;28;20601;-77
2021/12/30 00:32:24;;;;;;;5.28;4.88;;;;;;;0.77;94.89;99294.94;5064259;28;20024;-76
2021/12/30 00:34:49;;;;;;;1.50;1.48;;;;;;;0.78;94.97;99291.56;5064346;28;20023;-76
2021/12/30 00:37:15;;;;;;;0.30;0.30;;;;;;;0.85;94.29;99292.50;5064209;28;20025;-78
2021/12/30 00:39:40;;;;;;;0.40;0.40;;;;;;;0.83;94.18;99274.56;5064163;28;20422;-76
2021/12/30 00:42:06;;;;;;;0.40;0.40;;;;;;;0.85;94.31;99272.03;5062826;28;20025;-78
2021/12/30 00:44:32;;;;;;;0.40;0.40;;;;;;;0.89;94.14;99258.47;5063865;28;20051;-75
2021/12/30 00:47:00;;;;;;;0.50;0.50;;;;;;;0.88;94.13;99274.63;5064441;28;20071;-75
2021/12/30 00:49:26;;;;;;;0.40;0.40;;;;;;;0.93;94.31;99269.59;5062686;28;20088;-76
2021/12/30 00:51:52;;;;;;;0.38;0.38;;;;;;;0.83;95.05;99279.69;5064197;28;20044;-75
2021/12/30 00:54:18;;;;;;;0.95;0.95;;;;;;;0.95;94.52;99266.22;5063703;28;20020;-76
2021/12/30 00:56:44;;;;;;;0.75;0.75;;;;;;;0.93;94.44;99262.78;5063794;28;20384;-76
2021/12/30 00:59:09;;;;;;;1.23;1.23;;;;;;;0.78;94.75;99244.72;5063289;28;20103;-76
2021/12/30 01:01:34;;;;;;;0.30;0.30;;;;;;;1.07;94.63;99267.22;5064003;28;20021;-77
2021/12/30 01:04:00;;;;;;;7.85;5.10;;;;;;;0.98;94.94;99255.16;5063884;28;20021;-76
2021/12/30 01:06:25;;;;;;;0.80;0.80;;;;;;;1.02;94.51;99251.84;5063763;28;20075;-78
2021/12/30 01:08:51;;;;;;;0.30;0.30;;;;;;;1.02;94.44;99253.53;5063501;28;20029;-76
2021/12/30 01:11:18;;;;;;;0.30;0.30;;;;;;;0.90;94.50;99239.75;5063693;28;20025;-76
2021/12/30 01:13:45;;;;;;;0.43;0.43;;;;;;;0.88;95.46;99253.34;5062087;28;20481;-77
2021/12/30 01:16:18;;;;;;;0.40;0.40;;;;;;;0.98;95.08;99244.94;5063747;28;20024;-76
2021/12/30 01:21:30;;;;;;;1.58;1.48;;;;;;;1.18;94.15;99250.28;5063844;28;20475;-76
2021/12/30 01:23:56;;;;;;;0.30;0.30;;;;;;;0.98;95.04;99230.47;5062238;28;20102;-75
2021/12/30 01:26:22;;;;;;;0.40;0.40;;;;;;;1.20;94.71;99234.97;5064339;28;20354;-75
2021/12/30 01:28:49;;;;;;;0.80;0.80;;;;;;;1.16;94.74;99243.44;5063686;28;20040;-75
2021/12/30 01:31:16;;;;;;;0.30;0.30;;;;;;;1.17;95.20;99234.94;5062089;28;20112;-75
2021/12/30 01:33:44;;;;;;;2.53;2.38;;;;;;;1.16;94.93;99228.09;5063720;28;20025;-76
2021/12/30 01:36:11;;;;;;;0.30;0.30;;;;;;;1.09;95.33;99219.50;5063915;28;20092;-77
2021/12/30 01:38:37;;;;;;;0.30;0.30;;;;;;;1.17;95.35;99220.47;5063567;28;20017;-74
2021/12/30 01:41:04;;;;;;;0.38;0.38;;;;;;;1.13;94.95;99205.06;5063755;28;20036;-76
2021/12/30 01:43:30;;;;;;;0.30;0.30;;;;;;;1.25;94.54;99212.84;5062278;28;20025;-75
2021/12/30 01:45:56;;;;;;;2.80;2.20;;;;;;;1.06;95.41;99215.22;5063378;28;20031;-75
2021/12/30 01:48:21;;;;;;;0.77;0.77;;;;;;;1.11;95.09;99202.50;5063305;28;20052;-75
2021/12/30 01:50:48;;;;;;;3.42;3.13;;;;;;;1.23;94.87;99200.06;5063351;28;20025;-75
2021/12/30 01:53:14;;;;;;;0.60;0.60;;;;;;;1.28;94.90;99196.72;5063148;28;20055;-75
2021/12/30 01:55:42;;;;;;;2.17;1.13;;;;;;;1.39;94.44;99172.06;5063235;28;20033;-76
2021/12/30 01:58:08;;;;;;;0.35;0.35;;;;;;;1.32;94.26;99178.00;5063166;28;20045;-74
2021/12/30 02:00:36;;;;;;;0.30;0.30;;;;;;;1.18;94.87;99178.69;5063106;28;20035;-74
2021/12/30 02:03:02;;;;;;;2.75;2.60;;;;;;;1.30;94.46;99154.97;5063305;28;20051;-74
2021/12/30 02:05:28;;;;;;;0.40;0.40;;;;;;;1.21;94.46;99155.75;5063016;28;20017;-76
2021/12/30 02:07:54;;;;;;;0.52;0.52;;;;;;;1.30;94.17;99156.66;5061381;28;20048;-75
2021/12/30 02:10:20;;;;;;;0.63;0.63;;;;;;;1.19;94.76;99159.97;5065805;28;20028;-75
2021/12/30 02:12:46;;;;;;;0.40;0.40;;;;;;;1.15;94.98;99168.44;5066571;28;20060;-72
2021/12/30 02:15:18;;;;;;;1.52;1.50;;;;;;;1.15;95.82;99165.88;5066824;28;20083;-74
2021/12/30 02:17:45;;;;;;;1.48;1.42;;;;;;;1.16;95.65;99161.63;5066858;28;20388;-75
2021/12/30 02:20:47;;;;;;;0.30;0.30;;;;;;;1.30;95.39;99157.50;5066712;28;20025;-74
2021/12/30 02:23:15;;;;;;;0.40;0.40;;;;;;;1.39;94.48;99154.16;5066148;28;20028;-76
2021/12/30 02:25:41;;;;;;;0.55;0.55;;;;;;;1.28;95.01;99145.56;5066332;28;20035;-76
2021/12/30 02:28:12;;;;;;;0.40;0.40;;;;;;;1.28;94.86;99155.81;5066248;28;20029;-76
2021/12/30 02:30:39;;;;;;;0.50;0.50;;;;;;;1.38;94.93;99152.47;5064958;28;20120;-76
2021/12/30 02:33:05;;;;;;;0.88;0.88;;;;;;;1.21;95.49;99158.31;5066264;28;20429;-76
2021/12/30 02:35:31;;;;;;;0.85;0.85;;;;;;;1.40;94.79;99145.69;5066089;28;20033;-76
2021/12/30 02:37:57;;;;;;;0.40;0.40;;;;;;;1.36;94.93;99149.03;5066488;28;20025;-77
2021/12/30 02:40:36;;;;;;;0.40;0.40;;;;;;;1.40;94.76;99132.03;5066109;28;20039;-76
2021/12/30 02:43:03;;;;;;;0.40;0.40;;;;;;;1.43;94.45;99132.03;5066140;28;20028;-76
2021/12/30 02:45:28;;;;;;;0.65;0.65;;;;;;;1.37;94.93;99125.19;5066065;28;20080;-76
2021/12/30 02:47:54;;;;;;;0.50;0.50;;;;;;;1.36;94.86;99115.78;5065833;28;20021;-76
2021/12/30 02:50:19;;;;;;;0.30;0.30;;;;;;;1.45;94.59;99107.34;5066136;28;20025;-75
2021/12/30 02:52:44;;;;;;;9.07;5.97;;;;;;;1.46;94.77;99109.03;5066087;28;20021;-75
2021/12/30 02:55:10;;;;;;;1.63;1.58;;;;;;;1.30;95.43;99108.94;5064343;28;20091;-76
2021/12/30 02:57:36;;;;;;;0.30;0.30;;;;;;;1.34;96.05;99118.31;5066102;28;20016;-76
2021/12/30 03:00:02;;;;;;;0.40;0.40;;;;;;;1.60;94.47;99101.47;5064451;28;20017;-76
2021/12/30 03:02:28;;;;;;;0.82;0.82;;;;;;;1.67;93.82;99102.38;5066019;28;20049;-76
2021/12/30 03:04:53;;;;;;;0.52;0.52;;;;;;;1.57;94.50;99102.31;5065724;28;20035;-77
2021/12/30 03:07:18;;;;;;;0.40;0.40;;;;;;;1.53;94.83;99092.06;5065926;28;20029;-76
2021/12/30 03:09:45;;;;;;;2.65;2.47;;;;;;;1.47;95.03;99103.09;5065403;28;20381;-76
2021/12/30 03:12:10;;;;;;;0.45;0.45;;;;;;;1.34;95.97;99099.59;5065397;28;20068;-77
2021/12/30 03:14:40;;;;;;;0.30;0.30;;;;;;;1.51;95.44;99078.38;5065455;28;20021;-76
2021/12/30 03:17:08;;;;;;;0.40;0.40;;;;;;;1.53;95.01;99095.47;5065266;28;20474;-77
2021/12/30 03:19:33;;;;;;;19.77;4.60;;;;;;;1.53;95.16;99098.03;5065239;28;20040;-77
2021/12/30 03:21:59;;;;;;;0.40;0.40;;;;;;;1.58;95.18;99087.84;5064464;28;20025;-76
2021/12/30 03:24:24;;;;;;;0.55;0.55;;;;;;;1.60;95.45;99089.53;5064914;28;20092;-76
2021/12/30 03:26:50;;;;;;;0.63;0.63;;;;;;;1.57;95.51;99076.72;5064581;28;20100;-76
2021/12/30 03:29:15;;;;;;;0.40;0.40;;;;;;;1.81;94.64;99064.94;5063942;28;20029;-77
2021/12/30 03:31:40;;;;;;;0.30;0.30;;;;;;;1.70;94.77;99070.00;5064291;28;20023;-77
2021/12/30 03:34:06;;;;;;;1.42;1.38;;;;;;;1.65;95.52;99064.00;5064704;28;20020;-77
2021/12/30 03:36:33;;;;;;;0.30;0.30;;;;;;;1.85;95.03;99060.69;5064989;28;20025;-76
2021/12/30 03:38:59;;;;;;;1.77;1.67;;;;;;;1.84;94.66;99056.41;5065031;28;20013;-75
2021/12/30 03:41:26;;;;;;;0.40;0.40;;;;;;;1.62;96.04;99058.84;5065096;28;20592;-77
2021/12/30 03:43:52;;;;;;;1.65;1.58;;;;;;;1.78;95.66;99048.69;5064842;28;20029;-77
2021/12/30 03:46:18;;;;;;;0.30;0.30;;;;;;;1.72;95.98;99029.94;5064929;28;20108;-77
2021/12/30 03:48:44;;;;;;;0.45;0.45;;;;;;;1.68;96.57;99042.66;5063258;28;20037;-75
2021/12/30 03:51:25;;;;;;;0.38;0.38;;;;;;;1.80;96.77;99036.78;5063504;28;20025;-77
2021/12/30 03:53:53;;;;;;;0.85;0.85;;;;;;;1.91;96.31;99035.13;5064406;28;20052;-75
2021/12/30 03:56:26;;;;;;;0.40;0.40;;;;;;;2.03;95.09;99025.81;5064880;28;20032;-76
2021/12/30 03:58:51;;;;;;;2.60;2.05;;;;;;;1.96;95.10;99025.78;5065296;28;20021;-77
2021/12/30 04:01:20;;;;;;;0.30;0.30;;;;;;;1.87;96.20;99030.00;5064742;28;20104;-77
2021/12/30 04:03:46;;;;;;;0.30;0.30;;;;;;;1.93;96.68;99027.47;5064602;28;20028;-77
2021/12/30 04:06:12;;;;;;;0.40;0.40;;;;;;;2.06;96.18;99018.97;5064678;28;20089;-77
2021/12/30 04:08:40;;;;;;;0.38;0.38;;;;;;;1.89;96.69;99010.38;5064449;28;20056;-78
2021/12/30 04:11:05;;;;;;;0.50;0.50;;;;;;;2.10;96.49;98989.13;5064176;28;20032;-77
2021/12/30 04:13:32;;;;;;;0.32;0.32;;;;;;;2.13;96.35;98993.38;5064689;28;20085;-77
2021/12/30 04:15:57;;;;;;;0.30;0.30;;;;;;;2.11;96.70;98990.81;5064761;28;20032;-76
2021/12/30 04:18:23;;;;;;;0.30;0.30;;;;;;;2.06;97.13;98985.69;5064358;28;20052;-77
2021/12/30 04:20:48;;;;;;;0.30;0.30;;;;;;;2.17;97.22;98992.56;5064578;28;20025;-77
2021/12/30 04:23:14;;;;;;;0.30;0.30;;;;;;;2.25;96.66;98977.22;5064357;28;20082;-77
2021/12/30 04:25:40;;;;;;;0.68;0.68;;;;;;;2.23;97.19;98990.88;5064109;28;20027;-76
2021/12/30 04:28:05;;;;;;;0.30;0.30;;;;;;;2.37;97.18;99002.84;5064403;28;20024;-76
2021/12/30 04:30:31;;;;;;;0.30;0.30;;;;;;;2.44;96.72;98983.25;5064137;28;20021;-76
2021/12/30 04:32:57;;;;;;;0.20;0.20;;;;;;;2.51;96.52;98999.47;5063996;28;20024;-76
2021/12/30 04:35:22;;;;;;;0.30;0.30;;;;;;;2.54;97.14;98999.50;5064145;28;20093;-76
2021/12/30 04:37:48;;;;;;;0.30;0.30;;;;;;;2.53;97.61;99000.31;5064270;28;20024;-76
2021/12/30 04:40:13;;;;;;;0.32;0.32;;;;;;;2.50;97.93;98998.63;5064156;28;20040;-76
2021/12/30 04:42:39;;;;;;;0.30;0.30;;;;;;;2.50;98.07;98997.75;5064014;28;20044;-76
2021/12/30 04:45:06;;;;;;;0.63;0.63;;;;;;;2.52;98.00;98983.25;5064204;28;20037;-76
2021/12/30 04:47:32;;;;;;;0.30;0.30;;;;;;;2.62;98.03;98992.66;5062430;28;20021;-75
2021/12/30 04:49:58;;;;;;;1.17;1.17;;;;;;;2.70;97.78;98983.25;5063849;28;20021;-76
2021/12/30 04:52:24;;;;;;;0.32;0.32;;;;;;;2.69;97.89;98985.81;5063924;28;20080;-77
2021/12/30 04:54:50;;;;;;;0.30;0.30;;;;;;;2.69;98.24;98981.56;5063720;28;20088;-76
2021/12/30 04:57:16;;;;;;;0.30;0.30;;;;;;;2.72;98.07;98975.56;5063816;28;20025;-76
2021/12/30 04:59:41;;;;;;;0.30;0.30;;;;;;;2.78;98.01;98977.31;5063739;28;20051;-76
2021/12/30 05:02:07;;;;;;;0.35;0.35;;;;;;;2.78;97.96;98973.00;5063919;28;20025;-76
2021/12/30 05:04:33;;;;;;;0.40;0.40;;;;;;;2.78;98.17;98982.44;5063730;28;20566;-76
2021/12/30 05:06:58;;;;;;;0.30;0.30;;;;;;;2.80;98.03;98980.69;5063824;28;20500;-76
2021/12/30 05:09:23;;;;;;;0.30;0.30;;;;;;;2.87;98.16;98986.69;5063683;28;20024;-76
2021/12/30 05:11:49;;;;;;;0.30;0.30;;;;;;;2.87;98.27;98974.72;5063507;28;20417;-76
2021/12/30 05:14:14;;;;;;;0.30;0.30;;;;;;;2.95;98.24;98967.91;5063814;28;20032;-77
2021/12/30 05:16:40;;;;;;;0.30;0.30;;;;;;;2.93;98.36;98964.47;5063679;28;20028;-76
2021/12/30 05:19:06;;;;;;;0.30;0.30;;;;;;;3.02;98.38;98976.41;5063608;28;20021;-75
2021/12/30 05:21:32;;;;;;;0.40;0.40;;;;;;;3.06;98.52;98961.91;5062138;28;20021;-76
2021/12/30 05:23:57;;;;;;;0.47;0.47;;;;;;;3.06;98.62;98973.03;5063000;28;20453;-75
2021/12/30 05:26:27;;;;;;;0.52;0.52;;;;;;;3.07;98.69;98973.84;5063389;28;20055;-76
2021/12/30 05:28:53;;;;;;;0.30;0.30;;;;;;;3.09;98.44;98973.00;5063415;28;20019;-76
2021/12/30 05:31:18;;;;;;;1.42;1.42;;;;;;;3.12;98.64;98972.16;5063353;28;20112;-76
2021/12/30 05:33:44;;;;;;;2.65;2.55;;;;;;;3.24;98.15;98970.44;5061792;28;20484;-75
2021/12/30 05:36:09;;;;;;;0.40;0.40;;;;;;;3.22;98.70;98968.72;5063651;28;20036;-76
2021/12/30 05:38:34;;;;;;;0.30;0.30;;;;;;;3.22;98.55;98958.47;5063423;28;20043;-76
2021/12/30 05:41:00;;;;;;;0.73;0.73;;;;;;;3.32;98.66;98961.00;5063224;28;20509;-77
2021/12/30 05:43:25;;;;;;;0.30;0.30;;;;;;;3.39;98.70;98966.97;5063359;28;20047;-77
2021/12/30 05:45:50;;;;;;;0.30;0.30;;;;;;;3.38;98.64;98958.44;5067062;28;20213;-76
2021/12/30 05:48:16;;;;;;;0.40;0.40;;;;;;;3.40;98.76;98940.47;5067615;28;20025;-75
2021/12/30 05:50:41;;;;;;;0.30;0.30;;;;;;;3.44;99.02;98926.75;5067485;28;20029;-76
2021/12/30 05:53:06;;;;;;;0.30;0.30;;;;;;;3.52;98.62;98934.44;5067281;28;20029;-75
2021/12/30 05:55:32;;;;;;;0.32;0.32;;;;;;;3.47;98.81;98935.31;5067265;28;20024;-74
2021/12/30 05:57:58;;;;;;;0.30;0.30;;;;;;;3.56;99.06;98939.53;5065967;28;20028;-75
2021/12/30 06:00:26;;;;;;;0.40;0.40;;;;;;;3.54;98.92;98933.59;5067130;28;20032;-75
2021/12/30 06:02:52;;;;;;;0.30;0.30;;;;;;;3.63;98.95;98934.38;5067141;28;20021;-74
2021/12/30 06:05:17;;;;;;;0.40;0.40;;;;;;;3.69;99.22;98940.34;5067209;28;20035;-75
2021/12/30 06:07:43;;;;;;;0.55;0.55;;;;;;;3.75;99.32;98943.75;5067187;28;20032;-73
2021/12/30 06:10:09;;;;;;;0.30;0.30;;;;;;;3.83;99.39;98932.59;5065403;28;20443;-73
2021/12/30 06:12:36;;;;;;;0.30;0.30;;;;;;;3.83;99.65;98931.75;5065591;28;20421;-71
2021/12/30 06:15:02;;;;;;;0.50;0.50;;;;;;;3.83;99.45;98927.44;5066665;28;20044;-71
2021/12/30 06:17:27;;;;;;;0.45;0.45;;;;;;;3.89;99.60;98939.44;5066673;28;20029;-72
2021/12/30 06:19:52;;;;;;;0.30;0.30;;;;;;;3.84;99.20;98920.63;5066781;28;20021;-71
2021/12/30 06:22:18;;;;;;;0.30;0.30;;;;;;;3.83;99.39;98932.59;5066512;28;20020;-72
2021/12/30 06:24:43;;;;;;;0.38;0.38;;;;;;;3.87;99.45;98941.13;5065081;28;20055;-72
2021/12/30 06:27:09;;;;;;;0.30;0.30;;;;;;;3.88;99.52;98947.13;5065433;28;20021;-73
2021/12/30 06:29:36;;;;;;;0.30;0.30;;;;;;;3.91;98.96;98953.13;5066771;28;20021;-73
2021/12/30 06:32:03;;;;;;;0.30;0.30;;;;;;;3.92;99.10;98952.25;5067086;28;20100;-73
2021/12/30 06:34:29;;;;;;;0.30;0.30;;;;;;;3.90;99.04;98946.25;5066662;28;20100;-72
2021/12/30 06:36:54;;;;;;;0.40;0.40;;;;;;;3.93;99.15;98943.69;5066757;28;20028;-73
2021/12/30 06:39:22;;;;;;;0.30;0.30;;;;;;;3.92;99.10;98935.97;5066324;28;20683;-74
2021/12/30 06:41:47;;;;;;;0.88;0.88;;;;;;;3.92;99.12;98954.81;5066432;28;20139;-73
2021/12/30 06:44:13;;;;;;;0.57;0.57;;;;;;;3.95;99.23;98933.41;5066231;28;20029;-69
2021/12/30 06:46:39;;;;;;;5.38;1.75;;;;;;;3.90;99.12;98935.16;5066260;28;20052;-69
2021/12/30 06:49:09;;;;;;;0.30;0.30;;;;;;;3.92;99.09;98952.25;5064156;28;20029;-69
2021/12/30 06:51:35;;;;;;;0.30;0.30;;;;;;;3.94;99.19;98941.97;5064162;28;20055;-75
2021/12/30 06:54:05;;;;;;;0.30;0.30;;;;;;;3.91;99.04;98947.97;5065945;28;20457;-74
2021/12/30 06:56:31;;;;;;;0.70;0.70;;;;;;;3.92;99.18;98934.28;5065465;28;20027;-75
2021/12/30 06:58:57;;;;;;;1.30;1.30;;;;;;;3.95;99.24;98947.09;5066429;28;20465;-75
2021/12/30 07:01:22;;;;;;;0.40;0.40;;;;;;;3.95;99.05;98954.81;5066440;28;20033;-75
2021/12/30 07:03:48;;;;;;;0.30;0.30;;;;;;;3.97;99.35;98958.22;5066304;28;20059;-76
2021/12/30 07:06:13;;;;;;;0.40;0.40;;;;;;;4.02;99.18;98968.47;5066084;28;20032;-74
2021/12/30 07:08:38;;;;;;;0.88;0.88;;;;;;;4.06;99.18;98977.00;5065897;28;20052;-74
2021/12/30 07:11:04;;;;;;;0.63;0.63;;;;;;;4.08;98.96;98975.28;5065596;28;20381;-73
2021/12/30 07:13:29;;;;;;;0.35;0.35;;;;;;;4.07;99.07;98984.69;5065892;28;20084;-74
2021/12/30 07:15:55;;;;;;;0.30;0.30;;;;;;;4.11;99.12;98982.97;5066167;28;20073;-75
2021/12/30 07:18:20;;;;;;;0.30;0.30;;;;;;;4.11;99.13;98987.25;5065834;28;20048;-74
2021/12/30 07:20:45;;;;;;;1.38;1.30;;;;;;;4.15;99.31;98987.25;5066041;28;20032;-74
2021/12/30 07:23:11;;;;;;;0.30;0.30;;;;;;;4.14;99.23;98985.53;5065890;28;20059;-74
2021/12/30 07:25:36;;;;;;;0.22;0.22;;;;;;;4.20;99.39;99000.06;5065672;28;20024;-74
2021/12/30 07:28:03;;;;;;;0.90;0.47;;;;;;;4.26;99.37;98996.59;5063472;28;20116;-74
2021/12/30 07:30:30;;;;;;;0.30;0.30;;;;;;;4.28;99.18;98997.47;5065014;28;20025;-75
2021/12/30 07:32:56;;;;;;;0.30;0.30;;;;;;;4.34;99.41;99002.56;5065813;28;20083;-75
2021/12/30 07:35:22;;;;;;;0.30;0.30;;;;;;;4.36;99.57;98997.41;5065722;28;20029;-75
2021/12/30 07:37:49;;;;;;;0.50;0.50;;;;;;;4.43;99.78;98991.34;5064146;28;20020;-75
2021/12/30 07:40:15;;;;;;;0.25;0.25;;;;;;;4.46;99.60;98992.19;5065060;28;20046;-75
2021/12/30 07:42:41;;;;;;;0.30;0.30;;;;;;;4.52;99.67;99001.56;5065503;28;20021;-74
2021/12/30 07:45:09;;;;;;;0.30;0.30;;;;;;;4.59;99.96;99008.41;5065382;28;20095;-75
2021/12/30 07:47:35;;;;;;;0.30;0.30;;;;;;;4.65;99.66;99009.22;5065315;28;20024;-75
2021/12/30 07:50:00;;;;;;;0.32;0.32;;;;;;;4.65;99.82;99002.34;5065229;28;20063;-75
2021/12/30 07:52:25;;;;;;;0.30;0.30;;;;;;;4.75;99.67;99002.28;5065152;28;20050;-75
2021/12/30 07:54:51;;;;;;;0.45;0.45;;;;;;;4.76;99.44;99006.59;5064848;28;20029;-75
2021/12/30 07:57:20;;;;;;;0.30;0.30;;;;;;;4.76;99.38;99015.13;5063720;28;20051;-76
2021/12/30 07:59:46;;;;;;;0.30;0.30;;;;;;;4.73;99.17;99004.88;5065232;28;20042;-75
2021/12/30 08:02:12;;;;;;;0.35;0.35;;;;;;;4.68;99.13;99004.91;5065377;28;20248;-76
2021/12/30 08:04:37;;;;;;;0.50;0.50;;;;;;;4.69;98.90;99014.34;5065342;28;20033;-75
2021/12/30 08:07:02;;;;;;;0.30;0.30;;;;;;;4.66;98.83;99008.34;5065034;28;20024;-75
2021/12/30 08:09:28;;;;;;;0.38;0.38;;;;;;;4.56;98.53;98999.84;5065381;28;20021;-75
2021/12/30 08:11:53;;;;;;;0.47;0.47;;;;;;;4.54;98.56;99009.28;5065195;28;20701;-75
2021/12/30 08:14:18;;;;;;;0.35;0.35;;;;;;;4.54;98.57;99016.97;5064645;28;20120;-75
2021/12/30 08:16:44;;;;;;;11.05;1.45;;;;;;;4.50;98.49;99017.88;5064614;28;20024;-75
2021/12/30 08:19:09;;;;;;;0.30;0.30;;;;;;;4.52;99.02;99016.16;5064601;28;20033;-74
2021/12/30 08:21:34;;;;;;;0.40;0.40;;;;;;;4.50;98.67;99023.88;5064507;28;20048;-75
2021/12/30 08:24:00;;;;;;;0.40;0.40;;;;;;;4.46;98.71;99005.06;5064079;28;20032;-77
2021/12/30 08:26:25;;;;;;;0.30;0.30;;;;;;;4.48;98.52;99012.75;5064382;28;20029;-75
2021/12/30 08:28:51;;;;;;;0.30;0.30;;;;;;;4.37;98.67;99005.09;5064744;28;20492;-75
2021/12/30 08:31:16;;;;;;;0.30;0.30;;;;;;;4.49;98.81;99018.75;5063217;28;20039;-74
2021/12/30 08:33:42;;;;;;;0.30;0.30;;;;;;;4.51;99.03;99017.00;5064566;28;20051;-74
2021/12/30 08:36:07;;;;;;;0.30;0.30;;;;;;;4.52;98.87;99008.47;5064430;28;20141;-74
2021/12/30 08:38:32;;;;;;;0.93;0.93;;;;;;;4.54;98.97;99005.00;5064742;28;20044;-75
2021/12/30 08:40:58;;;;;;;0.30;0.30;;;;;;;4.60;99.09;99014.38;5064178;28;20516;-74
2021/12/30 08:43:25;;;;;;;0.40;0.40;;;;;;;4.62;99.46;99012.66;5064339;28;20035;-74
2021/12/30 08:45:50;;;;;;;0.30;0.30;;;;;;;4.62;99.27;99010.09;5064108;28;20076;-75
2021/12/30 08:48:16;;;;;;;0.30;0.30;;;;;;;4.71;99.26;99022.03;5064022;28;20024;-74
2021/12/30 08:50:42;;;;;;;0.30;0.30;;;;;;;4.73;99.39;99016.88;5064248;28;20021;-75
2021/12/30 08:53:08;;;;;;;0.30;0.30;;;;;;;4.80;99.25;99013.41;5063811;28;20025;-73
2021/12/30 08:55:34;;;;;;;0.30;0.30;;;;;;;4.82;99.61;99019.41;5064011;28;20028;-74
2021/12/30 08:57:59;;;;;;;0.30;0.30;;;;;;;4.90;99.67;99025.34;5064143;28;20029;-75
2021/12/30 09:00:29;;;;;;;0.30;0.30;;;;;;;4.94;99.49;99027.00;5062549;28;20021;-74
2021/12/30 09:02:56;;;;;;;0.32;0.32;;;;;;;4.99;99.51;99026.97;5064281;28;20357;-75
2021/12/30 09:05:22;;;;;;;0.35;0.35;;;;;;;5.06;99.64;99038.91;5063731;28;20469;-75
2021/12/30 09:07:49;;;;;;;0.65;0.65;;;;;;;5.12;99.94;99027.72;5063801;28;20033;-74
2021/12/30 09:10:15;;;;;;;0.30;0.30;;;;;;;5.17;99.88;99044.00;5063445;28;20025;-75
2021/12/30 09:12:43;;;;;;;0.35;0.35;;;;;;;5.21;99.73;99047.38;5063372;28;20045;-73
2021/12/30 09:15:11;;;;;;;0.30;0.30;;;;;;;5.25;99.76;99045.63;5063650;28;20025;-73
2021/12/30 09:17:38;;;;;;;0.40;0.40;;;;;;;5.23;99.89;99044.78;5063604;28;20042;-72
2021/12/30 09:20:06;;;;;;;0.40;0.40;;;;;;;5.27;99.79;99046.47;5062975;28;20025;-71
2021/12/30 09:22:33;;;;;;;0.30;0.30;;;;;;;5.25;99.57;99050.78;5063784;28;20049;-72
2021/12/30 09:24:58;;;;;;;0.30;0.30;;;;;;;5.28;99.69;99048.19;5063398;28;20017;-74
2021/12/30 09:27:24;;;;;;;0.30;0.30;;;;;;;5.34;99.59;99053.28;5063607;28;20040;-73
2021/12/30 09:29:49;;;;;;;5.15;4.57;;;;;;;5.32;99.25;99052.41;5063455;28;20023;-75
2021/12/30 09:32:14;;;;;;;5.55;5.07;;;;;;;5.30;99.35;99051.59;5063637;28;20020;-74
2021/12/30 09:34:40;;;;;;;0.40;0.40;;;;;;;5.29;99.37;99055.03;5063594;28;20087;-73
2021/12/30 09:37:09;;;;;;;0.30;0.30;;;;;;;5.28;99.26;99061.03;5063148;28;20477;-74
2021/12/30 09:39:38;;;;;;;0.35;0.35;;;;;;;5.31;99.12;99064.47;5063008;28;20021;-74
2021/12/30 09:42:04;;;;;;;0.30;0.30;;;;;;;5.29;99.31;99061.03;5063354;28;20029;-74
2021/12/30 09:44:29;;;;;;;0.55;0.55;;;;;;;5.27;99.30;99067.06;5062516;28;20461;-74
2021/12/30 09:46:54;;;;;;;0.40;0.40;;;;;;;5.31;99.32;99071.31;5062966;28;20039;-74
2021/12/30 09:49:23;;;;;;;1.00;1.00;;;;;;;5.28;99.08;99068.78;5063271;28;20033;-73
2021/12/30 09:51:48;;;;;;;0.30;0.30;;;;;;;5.28;99.30;99058.47;5063254;28;20028;-74
2021/12/30 09:54:14;;;;;;;0.30;0.30;;;;;;;5.31;99.20;99072.19;5063170;28;20086;-74
2021/12/30 09:56:40;;;;;;;0.60;0.60;;;;;;;5.31;99.13;99066.16;5063147;28;20101;-74
2021/12/30 09:59:06;;;;;;;0.30;0.30;;;;;;;5.33;99.21;99062.72;5063441;28;20028;-74
2021/12/30 10:01:33;;;;;;;1.23;1.23;;;;;;;5.32;99.16;99057.56;5063344;28;20097;-74
2021/12/30 10:04:03;;;;;;;0.30;0.30;;;;;;;5.37;99.41;99068.69;5063116;28;20033;-74
2021/12/30 10:06:30;;;;;;;0.30;0.30;;;;;;;5.36;99.28;99061.84;5063200;28;20032;-74
2021/12/30 10:09:02;;;;;;;0.30;0.30;;;;;;;5.40;99.51;99084.09;5062991;28;20029;-74
2021/12/30 10:11:28;;;;;;;0.35;0.35;;;;;;;5.37;99.22;99081.56;5062705;28;20057;-73
2021/12/30 10:14:00;;;;;;;0.30;0.30;;;;;;;5.40;99.48;99070.41;5063055;28;20033;-72
2021/12/30 10:16:26;;;;;;;0.45;0.45;;;;;;;5.39;99.27;99069.53;5063079;28;20345;-73
2021/12/30 10:19:00;;;;;;;0.30;0.30;;;;;;;5.40;99.35;99076.38;5061636;28;20024;-74
2021/12/30 10:21:38;;;;;;;1.95;1.85;;;;;;;5.41;99.28;99080.69;5063052;28;20027;-74
2021/12/30 10:24:06;;;;;;;0.30;0.30;;;;;;;5.40;99.34;99076.38;5063114;28;20060;-73
2021/12/30 10:26:51;;;;;;;0.30;0.30;;;;;;;5.41;99.44;99072.97;5062928;28;20017;-73
2021/12/30 10:29:17;;;;;;;0.30;0.30;;;;;;;5.41;99.09;99078.09;5062670;28;20045;-73
2021/12/30 10:31:43;;;;;;;1.38;1.38;;;;;;;5.42;99.34;99077.22;5066333;28;20056;-73
2021/12/30 10:34:10;;;;;;;0.43;0.43;;;;;;;5.43;99.12;99081.50;5066295;28;20075;-74
2021/12/30 10:36:44;;;;;;;0.30;0.30;;;;;;;5.37;99.28;99080.72;5066501;28;20059;-74
2021/12/30 10:39:26;;;;;;;0.30;0.30;;;;;;;5.41;99.36;99078.09;5066497;28;20036;-73
2021/12/30 10:42:16;;;;;;;0.40;0.40;;;;;;;5.37;99.15;99065.28;5066467;28;20048;-72
2021/12/30 10:44:55;;;;;;;0.40;0.40;;;;;;;5.40;99.11;99075.53;5066257;28;20039;-75
2021/12/30 10:47:24;;;;;;;0.38;0.38;;;;;;;5.38;98.93;99074.69;5066225;28;20383;-74
2021/12/30 10:50:11;;;;;;;0.30;0.30;;;;;;;5.32;99.08;99062.72;5064676;28;20021;-74
2021/12/30 10:52:49;;;;;;;0.40;0.40;;;;;;;5.37;99.06;99060.13;5066286;28;20029;-73
2021/12/30 10:55:15;;;;;;;0.30;0.30;;;;;;;5.29;99.31;99044.72;5065811;28;20025;-73
2021/12/30 10:57:41;;;;;;;0.35;0.35;;;;;;;5.31;99.36;99049.00;5065135;28;20166;-72
2021/12/30 11:00:08;;;;;;;1.17;1.15;;;;;;;5.33;99.46;99056.72;5066305;28;20017;-73
2021/12/30 11:02:35;;;;;;;0.30;0.30;;;;;;;5.36;99.12;99051.53;5066136;28;20028;-74
2021/12/30 11:05:09;;;;;;;1.15;1.15;;;;;;;5.40;99.42;99063.50;5066004;28;20063;-74
2021/12/30 11:07:43;;;;;;;0.40;0.40;;;;;;;5.42;99.19;99056.63;5066089;28;20048;-74
2021/12/30 11:10:11;;;;;;;0.35;0.35;;;;;;;5.38;98.91;99054.97;5065638;28;20108;-74
2021/12/30 11:12:41;;;;;;;0.40;0.40;;;;;;;5.34;99.31;99050.69;5065516;28;20048;-74
2021/12/30 11:15:27;;;;;;;0.30;0.30;;;;;;;5.31;99.07;99043.00;5065736;28;20088;-75
2021/12/30 11:18:06;;;;;;;0.40;0.40;;;;;;;5.29;99.30;99031.88;5065423;28;20033;-74
2021/12/30 11:20:44;;;;;;;0.30;0.30;;;;;;;5.32;98.88;99036.97;5064059;28;20037;-74
2021/12/30 11:23:11;;;;;;;0.38;0.38;;;;;;;5.32;99.08;99029.25;5065577;28;20017;-74
2021/12/30 11:25:36;;;;;;;0.40;0.40;;;;;;;5.37;99.13;99026.69;5063583;28;20027;-75
2021/12/30 11:28:02;;;;;;;0.40;0.40;;;;;;;5.30;99.04;99013.00;5064777;28;20060;-74
2021/12/30 11:30:27;;;;;;;0.30;0.30;;;;;;;5.33;99.07;99015.53;5064871;28;20074;-74
2021/12/30 11:32:53;;;;;;;0.40;0.40;;;;;;;5.32;98.76;99017.25;5065304;28;20024;-76
2021/12/30 11:35:22;;;;;;;1.02;1.02;;;;;;;5.29;98.63;99013.84;5063778;28;20476;-75
2021/12/30 11:37:48;;;;;;;0.40;0.40;;;;;;;5.28;98.77;99022.44;5065290;28;20016;-75
2021/12/30 11:40:21;;;;;;;2.20;2.05;;;;;;;5.21;98.97;99012.22;5063271;28;20017;-75
2021/12/30 11:42:53;;;;;;;1.55;1.45;;;;;;;5.21;98.92;99012.22;5064291;28;20024;-76